Korex Spb No.2 — D8BI — position and weather

sailwx.info

Track history (hours):
 
Tides and Currents Weather Stations Pressure Air Temp Water Temp Dewpoint Dewpoint Depression Visibility Wind Speed Wind Dir Waves Ship Positions

Korex Spb No.2

Last reported at 2017-Nov-17 17:51 UTC. Time now 2017-Nov-22 09:21 UTC.
Position N 46°32' E 030°57'.

Length 152 m; draft 5.9 m.

Type: Cargo ship. MMSI: 441954000.

Date/timePositionNaut miles runAvg speedWind from/ knotsBaromVisibWave heightAir tempDewpointWater temp
2017-Nov-17 17:51N 46°32' E 030°57'3 9.0
2017-Nov-17 17:28N 46°28' E 030°57'5 9.7
2017-Nov-17 17:00N 46°24' E 030°57'710.3
2017-Nov-17 16:17N 46°16' E 030°58'17 9.1
2017-Nov-17 14:26N 46°01' E 030°48'91 9.5
2017-Nov-17 04:56N 44°32' E 030°26'222 9.2
2017-Nov-16 04:52N 40°59' E 028°60'3 7.3
2017-Nov-16 04:29N 40°56' E 028°58'4 7.9
2017-Nov-16 03:58N 40°53' E 028°55'4 8.3
2017-Nov-16 03:29N 40°51' E 028°51'  
2017-Nov-09 19:20N 36°07' E 014°40'3 9.0
2017-Nov-09 19:00N 36°08' E 014°37'4 8.8
2017-Nov-09 18:30N 36°10' E 014°32'5 9.1
2017-Nov-09 18:00N 36°12' E 014°27'5 9.5
2017-Nov-09 17:30N 36°14' E 014°22'5 9.6
2017-Nov-09 17:00N 36°16' E 014°16'5 9.8
2017-Nov-09 16:31N 36°18' E 014°11'5 9.8
2017-Nov-09 16:00N 36°20' E 014°05'5 9.8
2017-Nov-09 15:30N 36°22' E 013°60'510.0
2017-Nov-09 15:01N 36°24' E 013°54'510.1
2017-Nov-09 14:31N 36°26' E 013°48'5 9.9
2017-Nov-09 13:59N 36°28' E 013°42'  
Track history (hours):
 
Tides and Currents Weather Stations Pressure Air Temp Water Temp Dewpoint Dewpoint Depression Visibility Wind Speed Wind Dir Waves Ship Positions

Korex Spb No.2

Last reported at 2017-Nov-17 17:51 UTC. Time now 2017-Nov-22 09:21 UTC.
Position N 46°32' E 030°57'.

Length 152 m; draft 5.9 m.

Type: Cargo ship. MMSI: 441954000.

Date/timePositionNaut miles runAvg speedWind from/ knotsBaromVisibWave heightAir tempDewpointWater temp
2017-Nov-17 17:51N 46°32' E 030°57'3 9.0
2017-Nov-17 17:28N 46°28' E 030°57'5 9.7
2017-Nov-17 17:00N 46°24' E 030°57'710.3
2017-Nov-17 16:17N 46°16' E 030°58'17 9.1
2017-Nov-17 14:26N 46°01' E 030°48'91 9.5
2017-Nov-17 04:56N 44°32' E 030°26'222 9.2
2017-Nov-16 04:52N 40°59' E 028°60'3 7.3
2017-Nov-16 04:29N 40°56' E 028°58'4 7.9
2017-Nov-16 03:58N 40°53' E 028°55'4 8.3
2017-Nov-16 03:29N 40°51' E 028°51'  
2017-Nov-09 19:20N 36°07' E 014°40'3 9.0
2017-Nov-09 19:00N 36°08' E 014°37'4 8.8
2017-Nov-09 18:30N 36°10' E 014°32'5 9.1
2017-Nov-09 18:00N 36°12' E 014°27'5 9.5
2017-Nov-09 17:30N 36°14' E 014°22'5 9.6
2017-Nov-09 17:00N 36°16' E 014°16'5 9.8
2017-Nov-09 16:31N 36°18' E 014°11'5 9.8
2017-Nov-09 16:00N 36°20' E 014°05'5 9.8
2017-Nov-09 15:30N 36°22' E 013°60'510.0
2017-Nov-09 15:01N 36°24' E 013°54'510.1
2017-Nov-09 14:31N 36°26' E 013°48'5 9.9
2017-Nov-09 13:59N 36°28' E 013°42'  

Dump ship's entire track history